sensor_id;sensor_type;location;lat;lon;timestamp;P1;durP1;ratioP1;P2;durP2;ratioP2
76306;SDS011;65117;44.120;3.068;2024-01-15T00:01:54;10.68;;;5.22;;
76306;SDS011;65117;44.120;3.068;2024-01-15T00:04:20;11.32;;;5.97;;
76306;SDS011;65117;44.120;3.068;2024-01-15T00:06:46;8.55;;;5.07;;
76306;SDS011;65117;44.120;3.068;2024-01-15T00:09:12;8.45;;;5.18;;
76306;SDS011;65117;44.120;3.068;2024-01-15T00:11:37;8.40;;;5.07;;
76306;SDS011;65117;44.120;3.068;2024-01-15T00:14:03;10.00;;;5.65;;
76306;SDS011;65117;44.120;3.068;2024-01-15T00:16:29;10.02;;;6.07;;
76306;SDS011;65117;44.120;3.068;2024-01-15T00:18:55;9.55;;;5.20;;
76306;SDS011;65117;44.120;3.068;2024-01-15T00:21:20;9.00;;;5.25;;
76306;SDS011;65117;44.120;3.068;2024-01-15T00:23:46;12.10;;;6.45;;
76306;SDS011;65117;44.120;3.068;2024-01-15T00:26:12;10.90;;;6.15;;
76306;SDS011;65117;44.120;3.068;2024-01-15T00:28:38;11.85;;;6.57;;
76306;SDS011;65117;44.120;3.068;2024-01-15T00:31:04;9.13;;;5.88;;
76306;SDS011;65117;44.120;3.068;2024-01-15T00:33:30;9.15;;;5.38;;
76306;SDS011;65117;44.120;3.068;2024-01-15T00:35:56;9.43;;;5.72;;
76306;SDS011;65117;44.120;3.068;2024-01-15T00:38:22;10.35;;;6.00;;
76306;SDS011;65117;44.120;3.068;2024-01-15T00:40:48;10.25;;;6.15;;
76306;SDS011;65117;44.120;3.068;2024-01-15T00:43:14;12.63;;;7.10;;
76306;SDS011;65117;44.120;3.068;2024-01-15T00:45:43;12.77;;;6.93;;
76306;SDS011;65117;44.120;3.068;2024-01-15T00:48:09;12.00;;;7.15;;
76306;SDS011;65117;44.120;3.068;2024-01-15T00:50:35;13.57;;;6.85;;
76306;SDS011;65117;44.120;3.068;2024-01-15T00:53:00;12.60;;;6.85;;
76306;SDS011;65117;44.120;3.068;2024-01-15T00:55:27;11.52;;;6.75;;
76306;SDS011;65117;44.120;3.068;2024-01-15T00:57:54;11.45;;;6.32;;
76306;SDS011;65117;44.120;3.068;2024-01-15T01:00:19;12.65;;;7.20;;
76306;SDS011;65117;44.120;3.068;2024-01-15T01:02:45;10.13;;;6.32;;
76306;SDS011;65117;44.120;3.068;2024-01-15T01:05:11;12.20;;;6.65;;
76306;SDS011;65117;44.120;3.068;2024-01-15T01:07:36;13.00;;;7.05;;
76306;SDS011;65117;44.120;3.068;2024-01-15T01:10:02;10.82;;;6.03;;
76306;SDS011;65117;44.120;3.068;2024-01-15T01:12:29;12.93;;;7.35;;
76306;SDS011;65117;44.120;3.068;2024-01-15T01:14:55;11.02;;;6.78;;
76306;SDS011;65117;44.120;3.068;2024-01-15T01:17:21;14.05;;;7.57;;
76306;SDS011;65117;44.120;3.068;2024-01-15T01:19:47;16.67;;;8.80;;
76306;SDS011;65117;44.120;3.068;2024-01-15T01:22:13;15.95;;;8.73;;
76306;SDS011;65117;44.120;3.068;2024-01-15T01:24:38;15.27;;;8.80;;
76306;SDS011;65117;44.120;3.068;2024-01-15T01:27:04;11.90;;;7.25;;
76306;SDS011;65117;44.120;3.068;2024-01-15T01:29:30;14.45;;;7.25;;
76306;SDS011;65117;44.120;3.068;2024-01-15T01:31:55;15.25;;;7.97;;
76306;SDS011;65117;44.120;3.068;2024-01-15T01:34:21;17.00;;;9.15;;
76306;SDS011;65117;44.120;3.068;2024-01-15T01:36:47;19.40;;;10.10;;
76306;SDS011;65117;44.120;3.068;2024-01-15T01:39:13;15.77;;;8.48;;
76306;SDS011;65117;44.120;3.068;2024-01-15T01:41:39;15.30;;;8.48;;
76306;SDS011;65117;44.120;3.068;2024-01-15T01:44:05;15.13;;;8.27;;
76306;SDS011;65117;44.120;3.068;2024-01-15T01:46:32;12.55;;;7.45;;
76306;SDS011;65117;44.120;3.068;2024-01-15T01:48:59;14.48;;;7.32;;
76306;SDS011;65117;44.120;3.068;2024-01-15T01:51:30;12.10;;;7.55;;
76306;SDS011;65117;44.120;3.068;2024-01-15T01:53:56;14.07;;;8.18;;
76306;SDS011;65117;44.120;3.068;2024-01-15T01:56:22;13.48;;;7.90;;
76306;SDS011;65117;44.120;3.068;2024-01-15T01:58:48;15.52;;;8.13;;
76306;SDS011;65117;44.120;3.068;2024-01-15T02:01:14;13.57;;;7.72;;
76306;SDS011;65117;44.120;3.068;2024-01-15T02:03:40;13.02;;;7.60;;
76306;SDS011;65117;44.120;3.068;2024-01-15T02:06:06;14.13;;;8.23;;
76306;SDS011;65117;44.120;3.068;2024-01-15T02:08:32;12.18;;;7.78;;
76306;SDS011;65117;44.120;3.068;2024-01-15T02:10:58;11.88;;;6.72;;
76306;SDS011;65117;44.120;3.068;2024-01-15T02:13:24;13.15;;;7.53;;
76306;SDS011;65117;44.120;3.068;2024-01-15T02:15:50;12.02;;;6.85;;
76306;SDS011;65117;44.120;3.068;2024-01-15T02:18:15;18.23;;;7.80;;
76306;SDS011;65117;44.120;3.068;2024-01-15T02:20:41;12.85;;;6.78;;
76306;SDS011;65117;44.120;3.068;2024-01-15T02:23:10;12.75;;;7.65;;
76306;SDS011;65117;44.120;3.068;2024-01-15T02:25:40;11.25;;;7.05;;
76306;SDS011;65117;44.120;3.068;2024-01-15T02:28:11;14.70;;;7.10;;
76306;SDS011;65117;44.120;3.068;2024-01-15T02:30:38;15.07;;;7.43;;
76306;SDS011;65117;44.120;3.068;2024-01-15T02:33:05;14.77;;;7.45;;
76306;SDS011;65117;44.120;3.068;2024-01-15T02:35:31;15.75;;;8.15;;
76306;SDS011;65117;44.120;3.068;2024-01-15T02:37:58;13.43;;;8.07;;
76306;SDS011;65117;44.120;3.068;2024-01-15T02:40:24;13.15;;;7.65;;
76306;SDS011;65117;44.120;3.068;2024-01-15T02:42:49;13.05;;;8.35;;
76306;SDS011;65117;44.120;3.068;2024-01-15T02:45:15;14.23;;;8.20;;
76306;SDS011;65117;44.120;3.068;2024-01-15T02:47:41;15.82;;;8.25;;
76306;SDS011;65117;44.120;3.068;2024-01-15T02:50:07;15.20;;;8.10;;
76306;SDS011;65117;44.120;3.068;2024-01-15T02:52:33;14.85;;;8.05;;
76306;SDS011;65117;44.120;3.068;2024-01-15T02:54:59;12.65;;;7.43;;
76306;SDS011;65117;44.120;3.068;2024-01-15T02:57:25;12.98;;;7.10;;
76306;SDS011;65117;44.120;3.068;2024-01-15T02:59:50;12.18;;;7.45;;
76306;SDS011;65117;44.120;3.068;2024-01-15T03:02:16;12.35;;;7.28;;
76306;SDS011;65117;44.120;3.068;2024-01-15T03:04:45;11.68;;;6.95;;
76306;SDS011;65117;44.120;3.068;2024-01-15T03:07:11;14.45;;;7.43;;
76306;SDS011;65117;44.120;3.068;2024-01-15T03:09:37;13.35;;;7.90;;
76306;SDS011;65117;44.120;3.068;2024-01-15T03:12:03;12.48;;;7.38;;
76306;SDS011;65117;44.120;3.068;2024-01-15T03:14:31;15.52;;;7.45;;
76306;SDS011;65117;44.120;3.068;2024-01-15T03:16:57;13.00;;;7.47;;
76306;SDS011;65117;44.120;3.068;2024-01-15T03:19:23;12.00;;;7.47;;
76306;SDS011;65117;44.120;3.068;2024-01-15T03:21:48;15.00;;;7.13;;
76306;SDS011;65117;44.120;3.068;2024-01-15T03:24:14;13.18;;;7.53;;
76306;SDS011;65117;44.120;3.068;2024-01-15T03:26:40;14.65;;;7.35;;
76306;SDS011;65117;44.120;3.068;2024-01-15T03:29:05;12.40;;;7.13;;
76306;SDS011;65117;44.120;3.068;2024-01-15T03:31:33;10.80;;;7.10;;
76306;SDS011;65117;44.120;3.068;2024-01-15T03:33:58;12.50;;;7.15;;
76306;SDS011;65117;44.120;3.068;2024-01-15T03:36:24;10.98;;;7.25;;
76306;SDS011;65117;44.120;3.068;2024-01-15T03:38:50;12.52;;;6.93;;
76306;SDS011;65117;44.120;3.068;2024-01-15T03:41:16;12.20;;;7.10;;
76306;SDS011;65117;44.120;3.068;2024-01-15T03:43:41;11.13;;;6.88;;
76306;SDS011;65117;44.120;3.068;2024-01-15T03:46:07;12.18;;;6.97;;
76306;SDS011;65117;44.120;3.068;2024-01-15T03:48:33;10.82;;;6.47;;
76306;SDS011;65117;44.120;3.068;2024-01-15T03:50:58;11.93;;;6.22;;
76306;SDS011;65117;44.120;3.068;2024-01-15T03:53:24;12.02;;;6.45;;
76306;SDS011;65117;44.120;3.068;2024-01-15T03:55:50;12.27;;;6.95;;
76306;SDS011;65117;44.120;3.068;2024-01-15T03:58:16;11.45;;;6.68;;
76306;SDS011;65117;44.120;3.068;2024-01-15T04:00:42;12.82;;;7.25;;
76306;SDS011;65117;44.120;3.068;2024-01-15T04:03:08;10.13;;;6.43;;
76306;SDS011;65117;44.120;3.068;2024-01-15T04:05:33;14.27;;;7.80;;
76306;SDS011;65117;44.120;3.068;2024-01-15T04:07:59;12.82;;;7.22;;
76306;SDS011;65117;44.120;3.068;2024-01-15T04:10:25;13.02;;;7.05;;
76306;SDS011;65117;44.120;3.068;2024-01-15T04:12:51;13.23;;;6.45;;
76306;SDS011;65117;44.120;3.068;2024-01-15T04:15:16;10.40;;;6.25;;
76306;SDS011;65117;44.120;3.068;2024-01-15T04:17:42;13.65;;;6.30;;
76306;SDS011;65117;44.120;3.068;2024-01-15T04:20:08;13.68;;;7.25;;
76306;SDS011;65117;44.120;3.068;2024-01-15T04:22:34;11.32;;;6.45;;
76306;SDS011;65117;44.120;3.068;2024-01-15T04:25:01;13.30;;;6.40;;
76306;SDS011;65117;44.120;3.068;2024-01-15T04:27:27;10.75;;;6.10;;
76306;SDS011;65117;44.120;3.068;2024-01-15T04:29:53;10.93;;;6.78;;
76306;SDS011;65117;44.120;3.068;2024-01-15T04:32:18;10.68;;;6.60;;
76306;SDS011;65117;44.120;3.068;2024-01-15T04:34:44;14.50;;;7.40;;
76306;SDS011;65117;44.120;3.068;2024-01-15T04:37:10;12.38;;;6.30;;
76306;SDS011;65117;44.120;3.068;2024-01-15T04:39:36;9.88;;;6.68;;
76306;SDS011;65117;44.120;3.068;2024-01-15T04:42:02;13.48;;;6.85;;
76306;SDS011;65117;44.120;3.068;2024-01-15T04:44:28;10.48;;;6.80;;
76306;SDS011;65117;44.120;3.068;2024-01-15T04:46:53;11.88;;;6.97;;
76306;SDS011;65117;44.120;3.068;2024-01-15T04:49:22;10.85;;;7.07;;
76306;SDS011;65117;44.120;3.068;2024-01-15T04:51:47;13.93;;;6.30;;
76306;SDS011;65117;44.120;3.068;2024-01-15T04:54:13;12.63;;;6.97;;
76306;SDS011;65117;44.120;3.068;2024-01-15T04:56:43;11.50;;;7.38;;
76306;SDS011;65117;44.120;3.068;2024-01-15T04:59:12;10.15;;;6.03;;
76306;SDS011;65117;44.120;3.068;2024-01-15T05:01:39;14.98;;;8.95;;
76306;SDS011;65117;44.120;3.068;2024-01-15T05:04:05;26.63;;;13.35;;
76306;SDS011;65117;44.120;3.068;2024-01-15T05:06:31;24.02;;;11.88;;
76306;SDS011;65117;44.120;3.068;2024-01-15T05:08:57;26.50;;;12.75;;
76306;SDS011;65117;44.120;3.068;2024-01-15T05:11:22;18.63;;;10.68;;
76306;SDS011;65117;44.120;3.068;2024-01-15T05:13:48;22.73;;;10.93;;
76306;SDS011;65117;44.120;3.068;2024-01-15T05:16:14;18.50;;;10.32;;
76306;SDS011;65117;44.120;3.068;2024-01-15T05:18:39;21.40;;;10.88;;
76306;SDS011;65117;44.120;3.068;2024-01-15T05:21:05;21.83;;;10.57;;
76306;SDS011;65117;44.120;3.068;2024-01-15T05:23:31;19.30;;;10.65;;
76306;SDS011;65117;44.120;3.068;2024-01-15T05:25:57;22.63;;;10.27;;
76306;SDS011;65117;44.120;3.068;2024-01-15T05:28:23;15.05;;;9.05;;
76306;SDS011;65117;44.120;3.068;2024-01-15T05:30:48;14.73;;;8.05;;
76306;SDS011;65117;44.120;3.068;2024-01-15T05:33:16;16.73;;;7.70;;
76306;SDS011;65117;44.120;3.068;2024-01-15T05:35:42;11.90;;;6.65;;
76306;SDS011;65117;44.120;3.068;2024-01-15T05:38:08;12.35;;;6.90;;
76306;SDS011;65117;44.120;3.068;2024-01-15T05:40:33;12.18;;;7.85;;
76306;SDS011;65117;44.120;3.068;2024-01-15T05:42:59;17.45;;;9.63;;
76306;SDS011;65117;44.120;3.068;2024-01-15T05:45:29;15.73;;;9.52;;
76306;SDS011;65117;44.120;3.068;2024-01-15T05:47:55;12.95;;;7.30;;
76306;SDS011;65117;44.120;3.068;2024-01-15T05:50:21;16.67;;;8.80;;
76306;SDS011;65117;44.120;3.068;2024-01-15T05:52:47;29.25;;;14.60;;
76306;SDS011;65117;44.120;3.068;2024-01-15T05:55:13;47.88;;;24.42;;
76306;SDS011;65117;44.120;3.068;2024-01-15T05:57:39;31.98;;;15.70;;
76306;SDS011;65117;44.120;3.068;2024-01-15T06:00:05;24.40;;;13.18;;
76306;SDS011;65117;44.120;3.068;2024-01-15T06:02:31;24.50;;;13.30;;
76306;SDS011;65117;44.120;3.068;2024-01-15T06:04:57;26.65;;;12.63;;
76306;SDS011;65117;44.120;3.068;2024-01-15T06:07:23;27.45;;;13.98;;
76306;SDS011;65117;44.120;3.068;2024-01-15T06:09:49;24.92;;;11.82;;
76306;SDS011;65117;44.120;3.068;2024-01-15T06:12:14;23.60;;;12.32;;
76306;SDS011;65117;44.120;3.068;2024-01-15T06:14:40;25.40;;;13.23;;
76306;SDS011;65117;44.120;3.068;2024-01-15T06:17:06;21.10;;;11.95;;
76306;SDS011;65117;44.120;3.068;2024-01-15T06:19:32;18.92;;;9.60;;
76306;SDS011;65117;44.120;3.068;2024-01-15T06:21:58;15.13;;;8.07;;
76306;SDS011;65117;44.120;3.068;2024-01-15T06:24:26;11.95;;;7.05;;
76306;SDS011;65117;44.120;3.068;2024-01-15T06:26:52;11.70;;;6.28;;
76306;SDS011;65117;44.120;3.068;2024-01-15T06:29:18;10.18;;;6.07;;
76306;SDS011;65117;44.120;3.068;2024-01-15T06:31:43;10.25;;;6.03;;
76306;SDS011;65117;44.120;3.068;2024-01-15T06:34:09;16.00;;;8.60;;
76306;SDS011;65117;44.120;3.068;2024-01-15T06:36:35;11.95;;;6.55;;
76306;SDS011;65117;44.120;3.068;2024-01-15T06:39:01;11.88;;;6.70;;
76306;SDS011;65117;44.120;3.068;2024-01-15T06:41:27;12.60;;;6.45;;
76306;SDS011;65117;44.120;3.068;2024-01-15T06:43:52;11.05;;;6.15;;
76306;SDS011;65117;44.120;3.068;2024-01-15T06:46:21;11.20;;;6.05;;
76306;SDS011;65117;44.120;3.068;2024-01-15T06:48:47;12.05;;;7.10;;
76306;SDS011;65117;44.120;3.068;2024-01-15T06:51:14;11.73;;;6.72;;
76306;SDS011;65117;44.120;3.068;2024-01-15T06:53:40;13.90;;;7.00;;
76306;SDS011;65117;44.120;3.068;2024-01-15T06:56:06;12.65;;;6.65;;
76306;SDS011;65117;44.120;3.068;2024-01-15T06:58:32;12.05;;;7.45;;
76306;SDS011;65117;44.120;3.068;2024-01-15T07:00:58;11.75;;;7.28;;
76306;SDS011;65117;44.120;3.068;2024-01-15T07:03:24;12.13;;;7.60;;
76306;SDS011;65117;44.120;3.068;2024-01-15T07:05:49;27.63;;;15.27;;
76306;SDS011;65117;44.120;3.068;2024-01-15T07:08:15;26.02;;;13.70;;
76306;SDS011;65117;44.120;3.068;2024-01-15T07:10:41;25.08;;;13.95;;
76306;SDS011;65117;44.120;3.068;2024-01-15T07:13:07;20.63;;;11.52;;
76306;SDS011;65117;44.120;3.068;2024-01-15T07:15:32;27.02;;;12.77;;
76306;SDS011;65117;44.120;3.068;2024-01-15T07:17:58;20.95;;;12.65;;
76306;SDS011;65117;44.120;3.068;2024-01-15T07:20:24;46.20;;;23.13;;
76306;SDS011;65117;44.120;3.068;2024-01-15T07:22:50;40.97;;;20.10;;
76306;SDS011;65117;44.120;3.068;2024-01-15T07:25:15;26.38;;;13.85;;
76306;SDS011;65117;44.120;3.068;2024-01-15T07:27:41;19.23;;;8.27;;
76306;SDS011;65117;44.120;3.068;2024-01-15T07:30:10;10.85;;;6.38;;
76306;SDS011;65117;44.120;3.068;2024-01-15T07:32:37;12.70;;;6.55;;
76306;SDS011;65117;44.120;3.068;2024-01-15T07:35:03;10.82;;;6.28;;
76306;SDS011;65117;44.120;3.068;2024-01-15T07:37:29;10.75;;;5.60;;
76306;SDS011;65117;44.120;3.068;2024-01-15T07:39:55;10.07;;;5.40;;
76306;SDS011;65117;44.120;3.068;2024-01-15T07:42:20;9.98;;;5.88;;
76306;SDS011;65117;44.120;3.068;2024-01-15T07:44:46;12.55;;;7.13;;
76306;SDS011;65117;44.120;3.068;2024-01-15T07:47:12;12.88;;;8.35;;
76306;SDS011;65117;44.120;3.068;2024-01-15T07:49:38;11.55;;;7.35;;
76306;SDS011;65117;44.120;3.068;2024-01-15T07:52:04;14.10;;;6.80;;
76306;SDS011;65117;44.120;3.068;2024-01-15T07:54:33;11.63;;;6.85;;
76306;SDS011;65117;44.120;3.068;2024-01-15T07:56:59;10.80;;;7.05;;
76306;SDS011;65117;44.120;3.068;2024-01-15T07:59:26;9.23;;;6.13;;
76306;SDS011;65117;44.120;3.068;2024-01-15T08:01:52;16.38;;;6.35;;
76306;SDS011;65117;44.120;3.068;2024-01-15T08:04:18;10.48;;;6.45;;
76306;SDS011;65117;44.120;3.068;2024-01-15T08:06:45;9.55;;;5.97;;
76306;SDS011;65117;44.120;3.068;2024-01-15T08:09:11;10.65;;;6.25;;
76306;SDS011;65117;44.120;3.068;2024-01-15T08:11:41;10.52;;;5.80;;
76306;SDS011;65117;44.120;3.068;2024-01-15T08:14:08;9.43;;;5.93;;
76306;SDS011;65117;44.120;3.068;2024-01-15T08:16:34;10.40;;;6.65;;
76306;SDS011;65117;44.120;3.068;2024-01-15T08:19:00;12.63;;;6.82;;
76306;SDS011;65117;44.120;3.068;2024-01-15T08:21:26;13.60;;;7.20;;
76306;SDS011;65117;44.120;3.068;2024-01-15T08:23:58;12.75;;;6.78;;
76306;SDS011;65117;44.120;3.068;2024-01-15T08:26:25;13.43;;;7.45;;
76306;SDS011;65117;44.120;3.068;2024-01-15T08:28:51;11.73;;;7.75;;
76306;SDS011;65117;44.120;3.068;2024-01-15T08:31:16;14.40;;;7.45;;
76306;SDS011;65117;44.120;3.068;2024-01-15T08:33:42;10.35;;;6.65;;
76306;SDS011;65117;44.120;3.068;2024-01-15T08:36:11;12.18;;;6.82;;
76306;SDS011;65117;44.120;3.068;2024-01-15T08:38:37;12.15;;;6.80;;
76306;SDS011;65117;44.120;3.068;2024-01-15T08:41:03;11.57;;;6.63;;
76306;SDS011;65117;44.120;3.068;2024-01-15T08:43:29;17.10;;;7.63;;
76306;SDS011;65117;44.120;3.068;2024-01-15T08:45:56;21.80;;;8.10;;
76306;SDS011;65117;44.120;3.068;2024-01-15T08:48:22;17.13;;;7.82;;
76306;SDS011;65117;44.120;3.068;2024-01-15T08:50:48;27.65;;;11.52;;
76306;SDS011;65117;44.120;3.068;2024-01-15T08:53:14;15.25;;;7.60;;
76306;SDS011;65117;44.120;3.068;2024-01-15T08:55:42;13.98;;;7.35;;
76306;SDS011;65117;44.120;3.068;2024-01-15T08:58:09;11.27;;;6.45;;
76306;SDS011;65117;44.120;3.068;2024-01-15T09:00:35;12.65;;;7.50;;
76306;SDS011;65117;44.120;3.068;2024-01-15T09:03:01;13.10;;;7.13;;
76306;SDS011;65117;44.120;3.068;2024-01-15T09:05:27;11.77;;;6.30;;
76306;SDS011;65117;44.120;3.068;2024-01-15T09:07:53;15.50;;;7.22;;
76306;SDS011;65117;44.120;3.068;2024-01-15T09:10:19;16.05;;;7.82;;
76306;SDS011;65117;44.120;3.068;2024-01-15T09:12:45;13.23;;;7.35;;
76306;SDS011;65117;44.120;3.068;2024-01-15T09:15:11;13.43;;;7.53;;
76306;SDS011;65117;44.120;3.068;2024-01-15T09:17:37;15.65;;;8.00;;
76306;SDS011;65117;44.120;3.068;2024-01-15T09:20:03;14.60;;;7.65;;
76306;SDS011;65117;44.120;3.068;2024-01-15T09:22:32;14.45;;;6.88;;
76306;SDS011;65117;44.120;3.068;2024-01-15T09:24:58;15.20;;;7.53;;
76306;SDS011;65117;44.120;3.068;2024-01-15T09:27:24;12.68;;;6.85;;
76306;SDS011;65117;44.120;3.068;2024-01-15T09:29:51;13.18;;;7.28;;
76306;SDS011;65117;44.120;3.068;2024-01-15T09:32:17;11.27;;;7.18;;
76306;SDS011;65117;44.120;3.068;2024-01-15T09:34:43;14.48;;;7.68;;
76306;SDS011;65117;44.120;3.068;2024-01-15T09:37:11;10.63;;;6.47;;
76306;SDS011;65117;44.120;3.068;2024-01-15T09:39:37;21.38;;;8.02;;
76306;SDS011;65117;44.120;3.068;2024-01-15T09:42:03;30.05;;;8.25;;
76306;SDS011;65117;44.120;3.068;2024-01-15T09:44:29;25.15;;;8.35;;
76306;SDS011;65117;44.120;3.068;2024-01-15T09:46:56;18.70;;;7.32;;
76306;SDS011;65117;44.120;3.068;2024-01-15T09:49:22;26.40;;;7.97;;
76306;SDS011;65117;44.120;3.068;2024-01-15T09:51:48;16.58;;;7.40;;
76306;SDS011;65117;44.120;3.068;2024-01-15T09:54:15;24.77;;;10.10;;
76306;SDS011;65117;44.120;3.068;2024-01-15T09:56:46;95.35;;;50.30;;
76306;SDS011;65117;44.120;3.068;2024-01-15T09:59:18;57.10;;;27.92;;
76306;SDS011;65117;44.120;3.068;2024-01-15T10:01:45;43.47;;;22.42;;
76306;SDS011;65117;44.120;3.068;2024-01-15T10:04:12;29.30;;;14.90;;
76306;SDS011;65117;44.120;3.068;2024-01-15T10:06:38;25.80;;;12.02;;
76306;SDS011;65117;44.120;3.068;2024-01-15T10:09:05;17.70;;;8.70;;
76306;SDS011;65117;44.120;3.068;2024-01-15T10:11:30;15.65;;;7.50;;
76306;SDS011;65117;44.120;3.068;2024-01-15T10:13:56;11.73;;;6.15;;
76306;SDS011;65117;44.120;3.068;2024-01-15T10:16:22;16.35;;;7.88;;
76306;SDS011;65117;44.120;3.068;2024-01-15T10:18:49;14.48;;;6.13;;
76306;SDS011;65117;44.120;3.068;2024-01-15T10:21:14;11.50;;;6.15;;
76306;SDS011;65117;44.120;3.068;2024-01-15T10:23:41;8.77;;;5.47;;
76306;SDS011;65117;44.120;3.068;2024-01-15T10:26:06;7.55;;;3.80;;
76306;SDS011;65117;44.120;3.068;2024-01-15T10:28:33;9.75;;;4.18;;
76306;SDS011;65117;44.120;3.068;2024-01-15T10:30:59;9.85;;;5.45;;
76306;SDS011;65117;44.120;3.068;2024-01-15T10:33:26;10.15;;;5.38;;
76306;SDS011;65117;44.120;3.068;2024-01-15T10:35:59;11.32;;;5.20;;
76306;SDS011;65117;44.120;3.068;2024-01-15T10:38:26;6.18;;;3.88;;
76306;SDS011;65117;44.120;3.068;2024-01-15T10:40:52;8.38;;;4.47;;
76306;SDS011;65117;44.120;3.068;2024-01-15T10:43:18;7.47;;;4.25;;
76306;SDS011;65117;44.120;3.068;2024-01-15T10:45:47;8.27;;;3.50;;
76306;SDS011;65117;44.120;3.068;2024-01-15T10:48:18;11.30;;;4.68;;
76306;SDS011;65117;44.120;3.068;2024-01-15T10:50:47;13.05;;;5.43;;
76306;SDS011;65117;44.120;3.068;2024-01-15T10:53:14;8.95;;;5.60;;
76306;SDS011;65117;44.120;3.068;2024-01-15T10:55:41;12.02;;;6.20;;
76306;SDS011;65117;44.120;3.068;2024-01-15T10:58:07;13.05;;;6.28;;
76306;SDS011;65117;44.120;3.068;2024-01-15T11:00:36;11.27;;;6.63;;
76306;SDS011;65117;44.120;3.068;2024-01-15T11:03:05;10.65;;;5.68;;
76306;SDS011;65117;44.120;3.068;2024-01-15T11:05:36;10.38;;;5.68;;
76306;SDS011;65117;44.120;3.068;2024-01-15T11:08:07;10.93;;;5.35;;
76306;SDS011;65117;44.120;3.068;2024-01-15T11:10:40;10.32;;;5.80;;
76306;SDS011;65117;44.120;3.068;2024-01-15T11:16:01;12.95;;;6.90;;
76306;SDS011;65117;44.120;3.068;2024-01-15T11:18:33;18.98;;;9.82;;
76306;SDS011;65117;44.120;3.068;2024-01-15T11:23:42;27.75;;;14.30;;
76306;SDS011;65117;44.120;3.068;2024-01-15T11:26:54;21.63;;;10.82;;
76306;SDS011;65117;44.120;3.068;2024-01-15T11:29:10;22.67;;;11.90;;
76306;SDS011;65117;44.120;3.068;2024-01-15T11:34:20;17.92;;;9.27;;
76306;SDS011;65117;44.120;3.068;2024-01-15T11:41:54;22.23;;;9.77;;
76306;SDS011;65117;44.120;3.068;2024-01-15T11:44:20;18.10;;;9.05;;
76306;SDS011;65117;44.120;3.068;2024-01-15T11:46:50;13.35;;;8.50;;
76306;SDS011;65117;44.120;3.068;2024-01-15T11:49:31;16.50;;;9.43;;
76306;SDS011;65117;44.120;3.068;2024-01-15T11:52:22;18.65;;;11.55;;
76306;SDS011;65117;44.120;3.068;2024-01-15T11:58:04;15.55;;;9.50;;
76306;SDS011;65117;44.120;3.068;2024-01-15T12:00:16;24.75;;;12.93;;
76306;SDS011;65117;44.120;3.068;2024-01-15T12:02:42;16.30;;;10.57;;
76306;SDS011;65117;44.120;3.068;2024-01-15T12:05:09;18.40;;;10.85;;
76306;SDS011;65117;44.120;3.068;2024-01-15T12:07:38;19.40;;;11.55;;
76306;SDS011;65117;44.120;3.068;2024-01-15T12:10:11;19.08;;;10.00;;
76306;SDS011;65117;44.120;3.068;2024-01-15T12:15:30;28.27;;;13.82;;
76306;SDS011;65117;44.120;3.068;2024-01-15T12:17:57;24.67;;;14.50;;
76306;SDS011;65117;44.120;3.068;2024-01-15T12:20:24;25.60;;;12.52;;
76306;SDS011;65117;44.120;3.068;2024-01-15T12:22:53;21.73;;;10.98;;
76306;SDS011;65117;44.120;3.068;2024-01-15T12:25:20;18.65;;;10.55;;
76306;SDS011;65117;44.120;3.068;2024-01-15T12:27:46;22.15;;;10.50;;
76306;SDS011;65117;44.120;3.068;2024-01-15T12:30:15;21.48;;;10.85;;
76306;SDS011;65117;44.120;3.068;2024-01-15T12:32:41;21.73;;;11.38;;
76306;SDS011;65117;44.120;3.068;2024-01-15T12:35:07;25.60;;;12.65;;
76306;SDS011;65117;44.120;3.068;2024-01-15T12:37:37;21.10;;;11.73;;
76306;SDS011;65117;44.120;3.068;2024-01-15T12:40:05;16.95;;;10.32;;
76306;SDS011;65117;44.120;3.068;2024-01-15T12:42:37;19.98;;;10.23;;
76306;SDS011;65117;44.120;3.068;2024-01-15T12:45:05;19.38;;;10.57;;
76306;SDS011;65117;44.120;3.068;2024-01-15T12:47:32;28.48;;;14.35;;
76306;SDS011;65117;44.120;3.068;2024-01-15T12:49:58;24.80;;;12.77;;
76306;SDS011;65117;44.120;3.068;2024-01-15T12:52:27;21.83;;;12.32;;
76306;SDS011;65117;44.120;3.068;2024-01-15T12:54:53;29.77;;;14.05;;
76306;SDS011;65117;44.120;3.068;2024-01-15T12:57:19;35.28;;;16.02;;
76306;SDS011;65117;44.120;3.068;2024-01-15T12:59:45;22.48;;;11.82;;
76306;SDS011;65117;44.120;3.068;2024-01-15T13:02:12;11.40;;;6.53;;
76306;SDS011;65117;44.120;3.068;2024-01-15T13:04:38;12.57;;;6.65;;
76306;SDS011;65117;44.120;3.068;2024-01-15T13:07:08;12.23;;;7.03;;
76306;SDS011;65117;44.120;3.068;2024-01-15T13:09:34;21.13;;;6.78;;
76306;SDS011;65117;44.120;3.068;2024-01-15T13:12:03;10.00;;;4.05;;
76306;SDS011;65117;44.120;3.068;2024-01-15T13:14:29;10.02;;;4.43;;
76306;SDS011;65117;44.120;3.068;2024-01-15T13:16:55;8.32;;;4.35;;
76306;SDS011;65117;44.120;3.068;2024-01-15T13:19:21;10.73;;;4.18;;
76306;SDS011;65117;44.120;3.068;2024-01-15T13:21:47;7.63;;;3.92;;
76306;SDS011;65117;44.120;3.068;2024-01-15T13:24:13;9.27;;;4.63;;
76306;SDS011;65117;44.120;3.068;2024-01-15T13:26:39;7.75;;;4.20;;
76306;SDS011;65117;44.120;3.068;2024-01-15T13:29:05;10.63;;;5.43;;
76306;SDS011;65117;44.120;3.068;2024-01-15T13:31:32;9.82;;;4.60;;
76306;SDS011;65117;44.120;3.068;2024-01-15T13:33:58;11.20;;;5.75;;
76306;SDS011;65117;44.120;3.068;2024-01-15T13:36:24;9.40;;;5.88;;
76306;SDS011;65117;44.120;3.068;2024-01-15T13:38:53;10.40;;;5.53;;
76306;SDS011;65117;44.120;3.068;2024-01-15T13:41:22;12.23;;;6.50;;
76306;SDS011;65117;44.120;3.068;2024-01-15T13:43:53;10.43;;;6.25;;
76306;SDS011;65117;44.120;3.068;2024-01-15T13:46:20;11.55;;;6.53;;
76306;SDS011;65117;44.120;3.068;2024-01-15T13:48:47;15.65;;;6.57;;
76306;SDS011;65117;44.120;3.068;2024-01-15T13:51:13;13.20;;;6.72;;
76306;SDS011;65117;44.120;3.068;2024-01-15T13:53:38;19.17;;;9.02;;
76306;SDS011;65117;44.120;3.068;2024-01-15T13:56:05;16.52;;;8.63;;
76306;SDS011;65117;44.120;3.068;2024-01-15T13:58:32;17.60;;;8.70;;
76306;SDS011;65117;44.120;3.068;2024-01-15T14:01:00;16.80;;;7.78;;
76306;SDS011;65117;44.120;3.068;2024-01-15T14:03:26;18.75;;;8.20;;
76306;SDS011;65117;44.120;3.068;2024-01-15T14:05:52;18.23;;;9.70;;
76306;SDS011;65117;44.120;3.068;2024-01-15T14:08:18;27.25;;;11.02;;
76306;SDS011;65117;44.120;3.068;2024-01-15T14:10:44;23.50;;;11.15;;
76306;SDS011;65117;44.120;3.068;2024-01-15T14:13:13;39.58;;;20.23;;
76306;SDS011;65117;44.120;3.068;2024-01-15T14:15:39;22.13;;;11.40;;
76306;SDS011;65117;44.120;3.068;2024-01-15T14:18:05;18.92;;;10.10;;
76306;SDS011;65117;44.120;3.068;2024-01-15T14:20:31;27.75;;;10.98;;
76306;SDS011;65117;44.120;3.068;2024-01-15T14:22:56;31.50;;;14.27;;
76306;SDS011;65117;44.120;3.068;2024-01-15T14:25:22;23.27;;;10.00;;
76306;SDS011;65117;44.120;3.068;2024-01-15T14:27:49;16.50;;;10.38;;
76306;SDS011;65117;44.120;3.068;2024-01-15T14:30:15;57.33;;;24.45;;
76306;SDS011;65117;44.120;3.068;2024-01-15T14:32:44;36.60;;;16.35;;
76306;SDS011;65117;44.120;3.068;2024-01-15T14:35:13;22.55;;;10.68;;
76306;SDS011;65117;44.120;3.068;2024-01-15T14:37:39;23.10;;;11.05;;
76306;SDS011;65117;44.120;3.068;2024-01-15T14:40:08;23.38;;;9.82;;
76306;SDS011;65117;44.120;3.068;2024-01-15T14:42:35;22.15;;;10.02;;
76306;SDS011;65117;44.120;3.068;2024-01-15T14:45:02;19.35;;;10.55;;
76306;SDS011;65117;44.120;3.068;2024-01-15T14:47:30;19.83;;;9.48;;
76306;SDS011;65117;44.120;3.068;2024-01-15T14:49:56;17.42;;;8.82;;